Time;durP1;ratioP1;P1;durP2;ratioP2;P2;SDS_P1;SDS_P2;PMS_P1;PMS_P2;Temp;Humidity;BMP_temperature;BMP_pressure;BME280_temperature;BME280_humidity;BME280_pressure;Samples;Min_cycle;Max_cycle;Signal;HPM_P1;HPM_P2
2022/05/31 00:02:18;;;;;;;5.15;3.05;;;13.00;93.60;;;;;;5031049;28;20029;-67
2022/05/31 00:04:46;;;;;;;6.43;2.92;;;13.00;93.70;;;;;;5031809;28;20029;-66
2022/05/31 00:07:12;;;;;;;6.70;2.83;;;13.00;93.60;;;;;;5030620;28;20021;-67
2022/05/31 00:09:37;;;;;;;10.30;3.00;;;13.00;93.50;;;;;;5029763;28;20105;-67
2022/05/31 00:12:06;;;;;;;5.72;3.13;;;12.90;93.60;;;;;;5031024;28;20029;-67
2022/05/31 00:14:32;;;;;;;6.07;2.57;;;12.90;93.60;;;;;;5033924;28;20494;-67
2022/05/31 00:17:00;;;;;;;6.30;3.17;;;12.90;93.60;;;;;;5034312;28;20039;-67
2022/05/31 00:19:26;;;;;;;6.57;2.72;;;12.90;93.80;;;;;;5034269;28;20029;-67
2022/05/31 00:22:07;;;;;;;5.37;2.73;;;12.90;93.80;;;;;;5034647;28;20052;-67
2022/05/31 00:24:34;;;;;;;7.47;3.40;;;12.90;93.90;;;;;;5034936;28;20083;-66
2022/05/31 00:27:02;;;;;;;6.30;3.20;;;12.80;93.60;;;;;;5034134;28;20032;-65
2022/05/31 00:29:28;;;;;;;9.18;3.35;;;12.80;93.60;;;;;;5033123;28;20059;-67
2022/05/31 00:31:54;;;;;;;7.07;3.33;;;12.80;93.70;;;;;;5034443;28;20128;-66
2022/05/31 00:34:21;;;;;;;6.23;3.20;;;12.70;93.70;;;;;;5033049;28;20067;-66
2022/05/31 00:36:49;;;;;;;6.13;2.80;;;12.80;93.80;;;;;;5033786;28;20029;-66
2022/05/31 00:39:19;;;;;;;4.13;2.90;;;12.70;93.80;;;;;;5033751;28;20028;-66
2022/05/31 00:42:17;;;;;;;6.43;3.33;;;12.70;93.80;;;;;;5033978;28;20072;-66
2022/05/31 00:44:44;;;;;;;5.88;3.30;;;12.70;93.90;;;;;;5034207;28;20494;-66
2022/05/31 00:47:13;;;;;;;6.63;3.07;;;12.60;94.00;;;;;;5032484;28;20083;-67
2022/05/31 00:49:48;;;;;;;7.63;2.90;;;12.60;93.90;;;;;;5032751;28;20029;-66
2022/05/31 00:52:25;;;;;;;8.00;3.10;;;12.60;94.00;;;;;;5034204;28;20021;-66
2022/05/31 00:55:06;;;;;;;7.77;3.23;;;12.60;94.10;;;;;;5016185;28;20037;-66
2022/05/31 00:57:34;;;;;;;7.13;2.83;;;12.60;94.00;;;;;;5032322;28;20091;-66
2022/05/31 01:00:05;;;;;;;7.63;3.77;;;12.60;94.00;;;;;;5033773;28;20032;-66
2022/05/31 01:02:32;;;;;;;9.57;4.13;;;12.50;94.00;;;;;;5033802;28;20040;-66
2022/05/31 01:05:00;;;;;;;7.07;3.40;;;12.50;94.10;;;;;;5032916;28;20553;-66
2022/05/31 01:07:27;;;;;;;5.95;3.40;;;12.50;94.20;;;;;;5033551;28;20028;-66
2022/05/31 01:09:53;;;;;;;6.87;3.30;;;12.50;94.20;;;;;;5032247;28;20545;-66
2022/05/31 01:12:42;;;;;;;6.83;3.37;;;12.60;94.20;;;;;;5033691;28;20129;-67
2022/05/31 01:15:47;;;;;;;7.07;3.37;;;12.50;94.30;;;;;;4972423;28;20432;-66
2022/05/31 01:18:32;;;;;;;5.57;3.10;;;12.60;94.50;;;;;;4972344;28;20049;-66
2022/05/31 01:21:17;;;;;;;6.90;3.27;;;12.50;94.50;;;;;;5017080;28;20131;-66
2022/05/31 01:24:12;;;;;;;7.47;3.10;;;12.50;94.40;;;;;;5032548;28;20040;-67
2022/05/31 01:27:08;;;;;;;6.07;3.10;;;12.50;94.50;;;;;;5014787;28;20025;-66
2022/05/31 01:29:37;;;;;;;7.03;3.30;;;12.50;94.40;;;;;;5031905;28;20029;-66
2022/05/31 01:32:05;;;;;;;;;;;12.50;94.40;;;;;;5033994;28;20532;-66
2022/05/31 01:34:55;;;;;;;5.27;3.37;;;12.50;94.50;;;;;;5032433;28;20340;-67
2022/05/31 01:37:40;;;;;;;6.53;2.87;;;12.50;94.40;;;;;;5031907;28;20075;-66
2022/05/31 01:40:16;;;;;;;6.43;3.20;;;12.50;94.40;;;;;;5032777;28;20022;-66
2022/05/31 01:42:46;;;;;;;6.73;2.80;;;12.50;94.50;;;;;;5031745;28;20033;-66
2022/05/31 01:45:26;;;;;;;6.10;2.93;;;12.40;94.40;;;;;;5031979;28;20056;-66
2022/05/31 01:48:05;;;;;;;6.77;3.03;;;12.40;94.50;;;;;;5032799;28;20045;-66
2022/05/31 01:50:31;;;;;;;4.60;2.40;;;12.40;94.40;;;;;;5032716;28;20104;-66
2022/05/31 01:52:59;;;;;;;5.87;2.77;;;12.40;94.40;;;;;;5031364;28;20026;-66
2022/05/31 01:55:26;;;;;;;8.57;3.10;;;12.30;94.40;;;;;;5031712;28;20045;-66
2022/05/31 01:57:58;;;;;;;6.17;2.70;;;12.30;94.50;;;;;;5031323;28;20034;-66
2022/05/31 02:00:25;;;;;;;6.87;2.80;;;12.30;94.50;;;;;;5031554;28;20083;-66
2022/05/31 02:02:56;;;;;;;6.60;3.03;;;12.30;94.70;;;;;;5032583;28;20360;-66
2022/05/31 02:05:21;;;;;;;5.23;2.67;;;12.30;94.70;;;;;;5031488;28;20025;-66
2022/05/31 02:08:00;;;;;;;7.87;3.00;;;12.30;94.70;;;;;;5031034;28;20394;-66
2022/05/31 02:10:32;;;;;;;6.03;2.83;;;12.30;94.80;;;;;;5031244;28;20084;-66
2022/05/31 02:13:02;;;;;;;5.83;2.70;;;12.30;94.90;;;;;;5031286;28;20025;-66
2022/05/31 02:15:34;;;;;;;7.80;2.63;;;12.30;95.00;;;;;;5032634;28;20117;-67
2022/05/31 02:18:15;;;;;;;6.47;3.10;;;12.30;95.00;;;;;;5032765;28;20128;-66
2022/05/31 02:21:04;;;;;;;7.93;2.78;;;12.30;95.00;;;;;;5003775;28;20038;-66
2022/05/31 02:23:30;;;;;;;6.17;2.90;;;12.30;95.10;;;;;;5031198;28;20458;-66
2022/05/31 02:25:56;;;;;;;8.23;3.13;;;12.40;95.20;;;;;;5030424;28;20108;-67
2022/05/31 02:28:23;;;;;;;8.17;2.97;;;12.40;95.10;;;;;;5030894;28;20386;-66
2022/05/31 02:30:49;;;;;;;6.87;2.90;;;12.40;95.10;;;;;;5031888;28;20498;-66
2022/05/31 02:33:15;;;;;;;5.27;2.60;;;12.50;95.20;;;;;;5032035;28;20112;-66
2022/05/31 02:35:41;;;;;;;6.97;2.90;;;12.50;95.20;;;;;;5031976;28;20036;-67
2022/05/31 02:38:07;;;;;;;7.90;2.90;;;12.50;95.30;;;;;;5030828;28;20112;-67
2022/05/31 02:40:33;;;;;;;5.47;3.00;;;12.50;95.30;;;;;;5030445;28;20371;-67
2022/05/31 02:42:59;;;;;;;6.07;2.70;;;12.50;95.30;;;;;;5030808;28;20041;-66
2022/05/31 02:45:26;;;;;;;6.00;2.63;;;12.40;95.30;;;;;;5030482;28;20025;-66
2022/05/31 02:47:53;;;;;;;5.73;3.40;;;12.40;95.40;;;;;;5030224;28;20068;-66
2022/05/31 02:50:20;;;;;;;5.27;2.40;;;12.30;95.40;;;;;;5030234;28;20121;-66
2022/05/31 02:52:46;;;;;;;5.47;2.63;;;12.40;95.40;;;;;;5030291;28;20030;-66
2022/05/31 02:55:13;;;;;;;5.57;2.60;;;12.30;95.40;;;;;;5030110;28;20049;-66
2022/05/31 02:57:57;;;;;;;6.00;2.50;;;12.30;95.40;;;;;;5031455;28;20044;-67
2022/05/31 03:00:59;;;;;;;4.83;2.47;;;12.30;95.40;;;;;;5029192;28;20042;-66
2022/05/31 03:03:44;;;;;;;9.03;2.67;;;12.30;95.50;;;;;;5031709;28;20119;-66
2022/05/31 03:06:28;;;;;;;6.07;2.47;;;12.30;95.70;;;;;;5031986;28;20410;-67
2022/05/31 03:09:04;;;;;;;6.30;2.67;;;12.30;95.80;;;;;;5030247;28;20481;-66
2022/05/31 03:11:48;;;;;;;4.73;2.40;;;12.30;95.90;;;;;;5030383;28;20040;-66
2022/05/31 03:14:24;;;;;;;8.20;4.13;;;12.40;96.00;;;;;;5031558;28;20037;-66
2022/05/31 03:17:10;;;;;;;5.90;3.40;;;12.40;96.20;;;;;;5031426;28;20029;-67
2022/05/31 03:19:43;;;;;;;11.40;3.60;;;12.40;96.30;;;;;;5030155;28;20033;-66
2022/05/31 03:22:14;;;;;;;5.30;3.00;;;12.40;96.40;;;;;;5031444;28;20064;-67
2022/05/31 03:25:08;;;;;;;5.40;3.00;;;12.30;96.60;;;;;;5031439;28;20108;-67
2022/05/31 03:27:54;;;;;;;5.60;2.97;;;12.30;96.80;;;;;;5031313;28;20021;-67
2022/05/31 03:30:21;;;;;;;6.07;3.10;;;12.30;97.00;;;;;;5029760;28;20025;-67
2022/05/31 03:32:47;;;;;;;7.23;3.37;;;12.30;97.20;;;;;;5031215;28;20029;-68
2022/05/31 03:35:13;;;;;;;8.07;3.50;;;12.40;97.30;;;;;;5031151;28;20482;-66
2022/05/31 03:37:40;;;;;;;6.87;3.83;;;12.40;97.40;;;;;;5029957;28;20029;-66
2022/05/31 03:43:09;;;;;;;8.03;3.33;;;12.40;97.40;;;;;;5030061;28;20505;-66
2022/05/31 03:45:40;;;;;;;6.72;3.72;;;12.40;97.60;;;;;;5029918;28;20152;-66
2022/05/31 03:48:27;;;;;;;6.93;3.60;;;12.40;97.70;;;;;;5032257;28;20044;-67
2022/05/31 03:51:09;;;;;;;8.33;3.50;;;12.30;97.90;;;;;;5033781;28;20026;-66
2022/05/31 03:53:35;;;;;;;6.87;3.80;;;12.40;98.00;;;;;;5033851;28;20037;-66
2022/05/31 03:56:05;;;;;;;8.13;3.47;;;12.40;98.10;;;;;;5034224;28;20033;-66
2022/05/31 03:58:34;;;;;;;9.77;4.07;;;12.40;98.20;;;;;;5033563;28;20033;-66
2022/05/31 04:01:12;;;;;;;6.32;3.50;;;12.40;98.30;;;;;;5033485;28;20036;-65
2022/05/31 04:03:39;;;;;;;6.37;3.70;;;12.40;98.30;;;;;;5033496;28;20501;-66
2022/05/31 04:06:05;;;;;;;6.93;3.73;;;12.40;98.40;;;;;;5033384;28;20056;-66
2022/05/31 04:08:31;;;;;;;9.47;4.17;;;12.40;98.40;;;;;;5034014;28;20387;-66
2022/05/31 04:10:57;;;;;;;5.43;3.60;;;12.40;98.40;;;;;;5033534;28;20041;-66
2022/05/31 04:13:25;;;;;;;8.50;3.90;;;12.50;98.50;;;;;;5033733;28;20033;-66
2022/05/31 04:16:13;;;;;;;6.97;3.80;;;12.50;98.40;;;;;;5034882;28;20087;-67
2022/05/31 04:18:43;;;;;;;15.20;4.03;;;12.50;98.50;;;;;;5033328;28;20505;-66
2022/05/31 04:21:11;;;;;;;7.33;4.20;;;12.50;98.50;;;;;;5016902;28;20025;-66
2022/05/31 04:26:44;;;;;;;7.67;3.70;;;12.50;98.50;;;;;;5034275;28;20396;-67
2022/05/31 04:29:29;;;;;;;8.73;4.40;;;12.50;98.70;;;;;;5034543;28;20056;-66
2022/05/31 04:32:15;;;;;;;10.73;4.50;;;12.50;99.10;;;;;;5034527;28;20034;-67
2022/05/31 04:34:45;;;;;;;8.20;4.23;;;12.50;99.00;;;;;;5033019;28;20052;-66
2022/05/31 04:37:12;;;;;;;5.63;3.93;;;12.50;99.10;;;;;;5032618;28;20036;-66
2022/05/31 04:40:09;;;;;;;9.23;4.30;;;12.50;99.10;;;;;;4980221;28;20161;-66
2022/05/31 04:42:53;;;;;;;8.93;4.30;;;12.50;99.30;;;;;;5034264;28;20456;-66
2022/05/31 04:45:47;;;;;;;7.70;4.07;;;12.50;99.20;;;;;;5032706;28;20482;-67
2022/05/31 04:48:40;;;;;;;6.57;4.10;;;12.50;99.10;;;;;;5003210;28;20033;-66
2022/05/31 04:51:06;;;;;;;6.07;4.27;;;12.60;99.00;;;;;;5032601;28;20120;-66
2022/05/31 04:53:41;;;;;;;13.40;4.67;;;12.60;98.90;;;;;;5032396;28;20116;-66
2022/05/31 04:56:20;;;;;;;8.13;4.23;;;12.60;98.80;;;;;;5032161;28;20116;-67
2022/05/31 04:58:52;;;;;;;7.67;4.23;;;12.60;98.90;;;;;;5046149;22;20037;-66
2022/05/31 05:01:19;;;;;;;8.50;4.30;;;12.60;98.80;;;;;;5031018;28;20060;-66
2022/05/31 05:03:48;;;;;;;8.97;4.30;;;12.60;98.80;;;;;;5032179;28;20025;-66
2022/05/31 05:06:16;;;;;;;7.23;4.07;;;12.60;98.90;;;;;;5032109;28;20079;-66
2022/05/31 05:08:45;;;;;;;7.03;3.93;;;12.60;99.00;;;;;;5031845;28;20025;-66
2022/05/31 05:11:17;;;;;;;9.13;4.67;;;12.60;99.00;;;;;;5032023;28;20029;-66
2022/05/31 05:13:55;;;;;;;6.43;4.03;;;12.60;99.10;;;;;;5032373;28;20439;-66
2022/05/31 05:16:32;;;;;;;7.73;4.23;;;12.60;99.10;;;;;;5033128;28;20029;-66
2022/05/31 05:18:58;;;;;;;8.77;5.00;;;12.70;99.00;;;;;;5032997;28;20443;-66
2022/05/31 05:21:24;;;;;;;8.30;4.23;;;12.70;98.80;;;;;;5031714;28;20037;-66
2022/05/31 05:23:53;;;;;;;10.38;4.45;;;12.70;98.90;;;;;;5032127;28;20033;-66
2022/05/31 05:26:28;;;;;;;12.70;4.87;;;12.70;98.90;;;;;;5031726;28;20058;-66
2022/05/31 05:32:08;;;;;;;10.10;5.00;;;12.70;99.20;;;;;;5031998;28;20041;-66
2022/05/31 05:34:39;;;;;;;10.57;5.03;;;12.80;99.10;;;;;;5033714;28;20037;-66
2022/05/31 05:37:17;;;;;;;9.33;4.90;;;12.80;99.10;;;;;;5031523;28;20041;-67
2022/05/31 05:39:45;;;;;;;7.90;5.20;;;12.80;99.10;;;;;;5031423;28;20482;-67
2022/05/31 05:42:29;;;;;;;6.03;4.25;;;12.90;99.20;;;;;;5032965;28;20099;-66
2022/05/31 05:45:15;;;;;;;10.77;5.67;;;12.90;99.20;;;;;;5031639;28;20029;-66
2022/05/31 05:47:43;;;;;;;9.17;5.13;;;12.90;99.10;;;;;;5031223;28;20033;-66
2022/05/31 05:50:10;;;;;;;10.50;5.47;;;12.90;99.20;;;;;;5031394;28;20060;-66
2022/05/31 05:52:50;;;;;;;11.48;5.38;;;13.00;99.40;;;;;;5032958;28;20040;-66
2022/05/31 05:55:37;;;;;;;7.50;4.80;;;13.00;99.10;;;;;;5033021;28;20048;-66
2022/05/31 05:58:21;;;;;;;9.95;4.72;;;13.00;99.10;;;;;;5032427;28;20040;-66
2022/05/31 06:01:10;;;;;;;11.00;4.68;;;13.10;99.10;;;;;;5032744;28;20083;-67
2022/05/31 06:03:59;;;;;;;9.55;4.45;;;13.10;99.10;;;;;;5015923;28;20401;-67
2022/05/31 06:06:31;;;;;;;10.15;4.82;;;13.10;99.10;;;;;;5014781;28;20056;-66
2022/05/31 06:09:05;;;;;;;9.27;5.20;;;13.10;98.90;;;;;;5032367;28;20025;-65
2022/05/31 06:11:43;;;;;;;8.82;4.43;;;13.10;98.80;;;;;;5031983;28;20129;-65
2022/05/31 06:14:31;;;;;;;9.02;4.75;;;13.10;98.70;;;;;;5030944;28;20057;-66
2022/05/31 06:17:01;;;;;;;12.43;4.80;;;13.10;98.80;;;;;;5030677;28;20037;-66
2022/05/31 06:19:33;;;;;;;9.55;5.65;;;13.00;98.70;;;;;;5030526;28;20036;-66
2022/05/31 06:22:00;;;;;;;8.20;4.75;;;13.00;99.00;;;;;;5014309;28;20103;-65
2022/05/31 06:24:37;;;;;;;9.23;5.03;;;13.10;99.70;;;;;;5015563;28;20083;-66
2022/05/31 06:27:24;;;;;;;15.00;7.38;;;13.00;99.90;;;;;;5031971;28;20037;-66
2022/05/31 06:29:50;;;;;;;15.63;7.13;;;13.00;99.90;;;;;;5030579;28;20032;-65
2022/05/31 06:32:16;;;;;;;9.97;6.07;;;12.90;99.90;;;;;;5032084;28;20030;-66
2022/05/31 06:34:45;;;;;;;11.27;6.45;;;12.90;99.90;;;;;;5030592;28;20033;-65
2022/05/31 06:37:30;;;;;;;15.05;6.55;;;12.80;99.90;;;;;;5031676;28;20098;-65
2022/05/31 06:39:57;;;;;;;13.65;6.50;;;12.80;99.90;;;;;;5014031;28;20094;-66
2022/05/31 06:42:42;;;;;;;11.38;6.03;;;12.80;99.90;;;;;;5031416;28;20081;-66
2022/05/31 06:45:27;;;;;;;10.83;6.47;;;12.70;99.90;;;;;;5032059;28;20041;-66
2022/05/31 06:48:11;;;;;;;11.60;6.40;;;12.70;99.90;;;;;;5031756;28;20032;-65
2022/05/31 06:51:14;;;;;;;14.10;6.93;;;12.80;99.90;;;;;;5009750;28;20042;-66
2022/05/31 06:57:07;;;;;;;12.55;7.32;;;12.80;99.90;;;;;;5031396;28;20080;-65
2022/05/31 06:59:41;;;;;;;12.73;7.03;;;12.80;99.90;;;;;;5029899;28;20037;-66
2022/05/31 07:02:08;;;;;;;11.80;7.30;;;12.80;99.90;;;;;;5030321;28;20044;-65
2022/05/31 07:04:35;;;;;;;14.10;8.10;;;12.80;99.90;;;;;;5031634;28;20021;-65
2022/05/31 07:07:01;;;;;;;19.27;8.83;;;12.80;99.90;;;;;;5029915;28;20490;-66
2022/05/31 07:09:46;;;;;;;19.73;8.43;;;12.80;99.90;;;;;;5031579;28;20049;-66
2022/05/31 07:12:20;;;;;;;15.30;8.00;;;12.70;99.90;;;;;;5030140;28;20087;-65
2022/05/31 07:15:05;;;;;;;17.73;9.37;;;12.70;99.90;;;;;;5031333;28;20528;-66
2022/05/31 07:17:49;;;;;;;20.50;9.50;;;12.80;99.90;;;;;;5031545;28;20409;-65
2022/05/31 07:20:16;;;;;;;18.50;8.50;;;12.70;99.90;;;;;;5030131;28;20405;-66
2022/05/31 07:22:43;;;;;;;25.43;12.97;;;12.80;99.90;;;;;;5030061;28;20037;-65
2022/05/31 07:25:34;;;;;;;16.83;10.57;;;12.80;99.90;;;;;;5032264;28;20084;-66
2022/05/31 07:28:07;;;;;;;14.70;9.20;;;12.80;99.90;;;;;;5034018;28;20076;-65
2022/05/31 07:30:34;;;;;;;18.33;9.50;;;12.80;99.90;;;;;;5034045;28;20040;-65
2022/05/31 07:33:02;;;;;;;15.75;10.05;;;12.70;99.90;;;;;;5034214;28;20038;-65
2022/05/31 07:35:29;;;;;;;18.80;9.30;;;12.70;99.90;;;;;;5034111;28;20509;-65
2022/05/31 07:37:56;;;;;;;16.60;9.97;;;12.80;99.90;;;;;;5034025;28;20030;-65
2022/05/31 07:40:26;;;;;;;23.05;13.27;;;12.80;99.90;;;;;;5033775;28;20394;-65
2022/05/31 07:42:52;;;;;;;18.58;10.00;;;12.70;99.90;;;;;;5033856;28;20036;-65
2022/05/31 07:45:19;;;;;;;16.35;8.98;;;12.80;99.90;;;;;;5033950;28;20551;-66
2022/05/31 07:47:46;;;;;;;20.30;9.55;;;12.70;99.90;;;;;;5033514;28;20032;-66
2022/05/31 07:50:12;;;;;;;19.80;9.40;;;12.70;99.90;;;;;;5034768;28;20021;-66
2022/05/31 07:52:59;;;;;;;17.65;9.20;;;12.80;99.90;;;;;;5035478;28;20032;-65
2022/05/31 07:56:06;;;;;;;15.10;9.02;;;12.70;99.90;;;;;;5015295;28;20064;-65
2022/05/31 07:58:50;;;;;;;17.35;9.25;;;12.80;99.90;;;;;;5034938;28;20473;-65
2022/05/31 08:01:37;;;;;;;14.90;8.90;;;12.80;99.90;;;;;;5023129;28;20045;-66
2022/05/31 08:04:15;;;;;;;;;;;12.90;99.90;;;;;;5033813;28;20022;-66
2022/05/31 08:06:42;;;;;;;19.17;9.82;;;12.90;99.90;;;;;;5034244;28;20325;-66
2022/05/31 08:09:07;;;;;;;21.63;9.82;;;13.00;99.90;;;;;;5033044;28;20033;-66
2022/05/31 08:11:34;;;;;;;15.02;9.30;;;13.00;99.90;;;;;;5034533;28;20386;-66
2022/05/31 08:14:01;;;;;;;15.00;8.80;;;13.10;99.90;;;;;;5034735;28;20056;-66
2022/05/31 08:16:29;;;;;;;19.52;9.70;;;13.10;99.90;;;;;;5034416;28;20188;-66
2022/05/31 08:18:56;;;;;;;15.60;9.50;;;13.20;99.90;;;;;;5034408;28;20029;-66
2022/05/31 08:21:27;;;;;;;16.83;8.55;;;13.20;99.90;;;;;;5034140;28;20095;-66
2022/05/31 08:24:01;;;;;;;16.67;9.07;;;13.30;99.90;;;;;;5034414;28;20060;-65
2022/05/31 08:26:28;;;;;;;14.73;8.70;;;13.30;99.90;;;;;;5034076;28;20030;-65
2022/05/31 08:28:54;;;;;;;12.77;8.27;;;13.40;99.90;;;;;;5032655;28;20032;-66
2022/05/31 08:31:27;;;;;;;13.20;8.30;;;13.40;99.90;;;;;;5034239;28;20040;-66
2022/05/31 08:33:53;;;;;;;14.48;8.82;;;13.50;99.90;;;;;;5034250;28;20037;-66
2022/05/31 08:36:20;;;;;;;11.80;7.65;;;13.60;99.90;;;;;;5034021;28;20549;-66
2022/05/31 08:38:46;;;;;;;11.27;7.10;;;13.60;99.90;;;;;;5033720;28;20033;-66
2022/05/31 08:41:31;;;;;;;9.77;5.97;;;13.70;99.90;;;;;;5033676;28;20049;-65
2022/05/31 08:44:12;;;;;;;12.18;6.35;;;13.80;99.90;;;;;;5034169;28;20029;-66
2022/05/31 08:46:56;;;;;;;9.80;6.40;;;13.90;99.90;;;;;;5033788;28;20028;-66
2022/05/31 08:52:50;;;;;;;9.90;6.40;;;14.00;99.90;;;;;;5033799;28;20091;-66
2022/05/31 08:58:21;;;;;;;8.68;5.57;;;14.10;99.90;;;;;;5032409;28;20053;-66
2022/05/31 09:00:50;;;;;;;11.07;5.57;;;14.10;99.90;;;;;;5033562;28;20029;-66
2022/05/31 09:03:36;;;;;;;9.07;5.55;;;14.10;99.90;;;;;;5033782;28;20057;-66
2022/05/31 09:06:08;;;;;;;8.20;4.47;;;14.10;99.90;;;;;;5033492;28;20390;-66
2022/05/31 09:08:40;;;;;;;9.70;5.20;;;14.10;99.90;;;;;;5033236;28;20065;-65
2022/05/31 09:11:28;;;;;;;8.05;4.63;;;14.20;99.90;;;;;;5033318;28;20095;-66
2022/05/31 09:14:14;;;;;;;8.15;4.40;;;14.20;99.90;;;;;;5033591;28;20039;-66
2022/05/31 09:16:46;;;;;;;7.60;4.45;;;14.20;99.90;;;;;;5033403;28;20087;-66
2022/05/31 09:19:22;;;;;;;8.07;4.57;;;14.30;99.90;;;;;;5033385;28;20405;-66
2022/05/31 09:21:49;;;;;;;7.20;5.00;;;14.30;99.90;;;;;;5033056;28;20096;-66
2022/05/31 09:24:21;;;;;;;8.63;4.47;;;14.40;99.90;;;;;;5033116;28;20033;-65
2022/05/31 09:26:54;;;;;;;6.70;4.32;;;14.40;99.90;;;;;;5032940;28;20033;-66
2022/05/31 09:29:25;;;;;;;7.80;4.88;;;14.40;99.90;;;;;;5033215;28;20382;-66
2022/05/31 09:32:15;;;;;;;10.10;4.95;;;14.40;99.90;;;;;;5033202;28;20112;-65
2022/05/31 09:34:56;;;;;;;7.80;4.65;;;14.40;99.90;;;;;;5033278;28;20052;-66
2022/05/31 09:37:22;;;;;;;10.00;4.47;;;14.50;99.90;;;;;;5032454;28;20026;-66
2022/05/31 09:40:18;;;;;;;6.95;4.60;;;14.50;99.90;;;;;;5031625;28;20040;-66
2022/05/31 09:43:04;;;;;;;7.75;5.20;;;14.50;99.90;;;;;;5032759;28;20069;-66
2022/05/31 09:45:33;;;;;;;10.35;5.93;;;14.60;99.90;;;;;;5032337;28;20029;-66
2022/05/31 09:48:02;;;;;;;10.13;5.60;;;14.60;99.90;;;;;;5032448;28;20139;-66
2022/05/31 09:50:29;;;;;;;;;;;14.60;99.90;;;;;;5033227;28;20041;-65
2022/05/31 09:52:58;;;;;;;8.82;4.65;;;14.70;99.90;;;;;;5032944;28;19919;-65
2022/05/31 09:58:39;;;;;;;6.13;3.70;;;14.70;99.90;;;;;;5032616;28;20033;-66
2022/05/31 10:01:13;;;;;;;7.28;3.63;;;14.70;99.90;;;;;;5032664;28;20030;-65
2022/05/31 10:03:48;;;;;;;6.85;3.83;;;14.80;99.90;;;;;;5031232;28;20487;-66
2022/05/31 10:06:18;;;;;;;7.15;3.67;;;14.90;99.90;;;;;;5032068;28;20029;-65
2022/05/31 10:08:49;;;;;;;4.75;2.70;;;15.00;99.90;;;;;;5032237;28;20394;-66
2022/05/31 10:11:35;;;;;;;6.97;3.13;;;15.00;99.90;;;;;;5032399;28;20033;-66
2022/05/31 10:14:15;;;;;;;7.30;3.35;;;15.10;99.90;;;;;;5032615;28;20041;-66
2022/05/31 10:16:42;;;;;;;4.75;2.85;;;15.10;99.90;;;;;;5032353;28;20033;-66
2022/05/31 10:19:25;;;;;;;8.05;4.32;;;15.10;99.90;;;;;;5032249;28;20478;-66
2022/05/31 10:21:51;;;;;;;6.70;3.88;;;15.10;99.90;;;;;;5032183;28;20037;-66
2022/05/31 10:24:33;;;;;;;4.78;2.45;;;15.10;99.90;;;;;;5031351;28;20522;-67
2022/05/31 10:27:27;;;;;;;4.00;2.40;;;15.10;99.90;;;;;;5032391;28;20074;-67
2022/05/31 10:30:02;;;;;;;4.10;2.10;;;15.10;99.90;;;;;;5030687;28;20029;-66
2022/05/31 10:32:52;;;;;;;3.22;2.00;;;15.20;99.90;;;;;;5031910;28;20034;-66
2022/05/31 10:35:27;;;;;;;5.72;2.70;;;15.20;99.90;;;;;;5032001;28;20022;-66
2022/05/31 10:37:58;;;;;;;5.70;2.53;;;15.30;99.90;;;;;;5030584;28;20036;-66
2022/05/31 10:40:47;;;;;;;4.85;2.80;;;15.30;99.90;;;;;;5030589;28;20041;-66
2022/05/31 10:43:43;;;;;;;5.07;2.60;;;15.30;99.70;;;;;;5031591;28;20043;-66
2022/05/31 10:46:23;;;;;;;4.38;2.38;;;15.40;99.90;;;;;;5030105;28;20457;-66
2022/05/31 10:48:53;;;;;;;3.53;2.03;;;15.40;99.80;;;;;;5031737;28;20029;-66
2022/05/31 10:51:55;;;;;;;5.72;2.30;;;15.50;99.70;;;;;;5031474;28;20033;-66
2022/05/31 10:55:05;;;;;;;5.63;2.53;;;15.60;99.90;;;;;;5031397;28;20037;-66
2022/05/31 10:58:02;;;;;;;5.60;2.40;;;15.70;99.00;;;;;;4970107;28;20042;-66
2022/05/31 11:00:32;;;;;;;5.30;1.90;;;15.80;98.40;;;;;;5037865;22;20053;-67
2022/05/31 11:03:15;;;;;;;3.70;2.10;;;15.80;99.20;;;;;;5031534;28;20777;-67
2022/05/31 11:06:04;;;;;;;4.25;2.33;;;15.80;99.30;;;;;;5031678;28;20105;-67
2022/05/31 11:11:57;;;;;;;4.05;2.20;;;15.80;97.90;;;;;;5031601;28;20034;-67
2022/05/31 11:14:47;;;;;;;3.88;2.03;;;15.80;98.40;;;;;;4998357;28;20037;-68
2022/05/31 11:17:48;;;;;;;3.42;1.80;;;15.80;98.20;;;;;;5022942;28;20053;-67
2022/05/31 11:20:27;;;;;;;3.90;2.00;;;15.80;97.80;;;;;;5007916;28;20048;-67
2022/05/31 11:23:12;;;;;;;3.67;1.70;;;15.80;97.90;;;;;;5031309;28;20036;-66
2022/05/31 11:25:45;;;;;;;3.08;1.63;;;15.80;98.20;;;;;;5031375;28;20111;-66
2022/05/31 11:28:32;;;;;;;3.28;1.77;;;15.80;98.10;;;;;;5031482;28;20474;-66
2022/05/31 11:31:12;;;;;;;2.60;1.70;;;15.80;98.00;;;;;;5031640;28;20359;-66
2022/05/31 11:34:16;;;;;;;5.57;2.50;;;15.80;98.20;;;;;;5031362;28;20501;-66
2022/05/31 11:36:54;;;;;;;6.05;2.40;;;15.90;98.00;;;;;;5031355;28;20052;-66
2022/05/31 11:39:50;;;;;;;4.10;2.08;;;16.00;97.40;;;;;;5031248;28;20442;-66
2022/05/31 11:42:50;;;;;;;4.40;2.38;;;16.00;97.00;;;;;;5031130;28;20041;-67
2022/05/31 11:45:44;;;;;;;4.00;2.17;;;16.10;96.30;;;;;;5031306;28;20022;-67
2022/05/31 11:48:31;;;;;;;3.90;2.10;;;16.10;96.70;;;;;;5031104;28;20359;-67
2022/05/31 11:51:31;;;;;;;3.28;1.73;;;16.10;96.70;;;;;;5031579;28;20072;-66
2022/05/31 11:54:31;;;;;;;4.22;2.10;;;16.10;96.10;;;;;;5031188;28;20109;-66
2022/05/31 11:57:10;;;;;;;3.95;1.70;;;16.00;96.20;;;;;;5029620;28;20394;-66
2022/05/31 11:59:46;;;;;;;5.00;2.30;;;16.00;96.10;;;;;;5029354;28;20037;-67
2022/05/31 12:02:18;;;;;;;3.63;2.40;;;16.10;95.40;;;;;;5029468;28;20405;-67
2022/05/31 12:05:04;;;;;;;4.85;2.28;;;16.20;94.80;;;;;;5031170;28;20033;-66
2022/05/31 12:07:48;;;;;;;4.40;2.17;;;16.20;94.90;;;;;;5030823;28;20030;-67
2022/05/31 12:10:46;;;;;;;5.85;2.00;;;16.20;94.50;;;;;;5033247;28;20112;-67
2022/05/31 12:13:15;;;;;;;4.07;1.90;;;16.40;94.90;;;;;;5034634;28;20033;-67
2022/05/31 12:15:43;;;;;;;4.05;2.30;;;16.60;95.80;;;;;;5033178;28;20060;-66
2022/05/31 12:18:19;;;;;;;5.13;1.88;;;16.80;94.60;;;;;;5034443;28;20041;-66
2022/05/31 12:21:12;;;;;;;5.43;2.47;;;16.90;93.90;;;;;;5033185;28;20025;-66
2022/05/31 12:24:04;;;;;;;3.97;2.10;;;17.00;92.90;;;;;;5034204;28;20049;-67
2022/05/31 12:26:45;;;;;;;4.30;1.83;;;17.20;93.40;;;;;;5033071;28;20034;-66
2022/05/31 12:29:22;;;;;;;3.97;2.00;;;17.40;93.10;;;;;;5034436;28;20033;-66
2022/05/31 12:31:48;;;;;;;3.53;1.80;;;17.60;91.70;;;;;;5034101;28;20017;-67
2022/05/31 12:34:20;;;;;;;5.90;2.40;;;17.70;91.20;;;;;;5034211;28;20037;-67
2022/05/31 12:37:12;;;;;;;4.72;1.70;;;18.00;91.30;;;;;;5033974;28;20029;-67
2022/05/31 12:39:40;;;;;;;5.25;1.85;;;18.20;90.90;;;;;;5033997;28;20552;-67
2022/05/31 12:42:15;;;;;;;3.88;1.70;;;18.40;88.60;;;;;;5033917;28;20037;-67
2022/05/31 12:44:43;;;;;;;8.57;1.95;;;18.60;84.30;;;;;;5032921;28;20025;-67
2022/05/31 12:47:24;;;;;;;3.23;1.63;;;18.90;83.30;;;;;;5034090;28;20033;-66
2022/05/31 12:50:36;;;;;;;2.65;1.60;;;18.90;80.40;;;;;;5033845;28;20025;-67
2022/05/31 12:55:38;;;;;;;3.30;1.98;;;18.50;78.40;;;;;;5033723;28;20037;-66
2022/05/31 12:58:28;;;;;;;2.72;1.65;;;18.30;78.50;;;;;;5033867;28;20033;-67
2022/05/31 13:01:04;;;;;;;5.30;1.58;;;18.20;79.20;;;;;;5033642;28;20048;-67
2022/05/31 13:03:33;;;;;;;3.35;1.42;;;17.90;79.50;;;;;;5033829;28;20033;-66
2022/05/31 13:06:07;;;;;;;3.17;1.55;;;17.70;77.40;;;;;;5033699;28;20025;-66
2022/05/31 13:08:48;;;;;;;3.45;1.50;;;17.50;78.20;;;;;;5033690;28;20040;-67
2022/05/31 13:20:28;;;;;;;4.80;2.17;;;17.00;82.60;;;;;;5033258;28;20061;-66
2022/05/31 13:22:55;;;;;;;;;;;16.80;84.10;;;;;;5033673;28;20033;-66
2022/05/31 13:25:24;;;;;;;4.35;2.00;;;16.80;87.50;;;;;;5033769;28;20016;-67
2022/05/31 13:27:53;;;;;;;3.15;2.00;;;16.70;88.00;;;;;;5033403;28;20052;-66
2022/05/31 13:30:22;;;;;;;3.88;2.05;;;16.60;88.80;;;;;;5033193;28;20021;-67
2022/05/31 13:32:49;;;;;;;5.05;2.30;;;16.60;89.20;;;;;;5033712;28;20053;-67
2022/05/31 13:35:16;;;;;;;5.20;2.72;;;16.60;89.80;;;;;;5033537;28;20455;-66
2022/05/31 13:37:57;;;;;;;5.18;2.88;;;16.60;91.00;;;;;;5033400;28;20033;-66
2022/05/31 13:40:41;;;;;;;5.10;2.15;;;16.60;91.80;;;;;;5031972;28;20115;-67
2022/05/31 13:43:34;;;;;;;4.60;1.80;;;16.50;92.10;;;;;;5033053;28;20029;-67
2022/05/31 13:46:13;;;;;;;5.22;2.30;;;16.60;90.00;;;;;;5032418;28;20067;-66
2022/05/31 13:48:40;;;;;;;4.03;2.00;;;16.40;91.60;;;;;;5032817;28;20418;-67
2022/05/31 13:51:18;;;;;;;3.15;1.83;;;16.20;90.30;;;;;;5033136;28;20033;-67
2022/05/31 13:53:45;;;;;;;4.25;2.00;;;16.10;91.20;;;;;;5031511;28;20029;-67
2022/05/31 13:56:17;;;;;;;3.92;2.60;;;16.00;92.60;;;;;;5032480;28;20429;-66
2022/05/31 13:58:47;;;;;;;5.45;2.10;;;16.00;92.60;;;;;;5032593;28;20125;-66
2022/05/31 14:01:38;;;;;;;2.97;1.85;;;16.20;94.80;;;;;;5032476;28;20486;-66
2022/05/31 14:04:31;;;;;;;6.32;1.88;;;16.40;96.20;;;;;;5022700;28;20120;-66
2022/05/31 14:06:58;;;;;;;2.60;1.80;;;16.70;96.20;;;;;;5030596;28;20055;-66
2022/05/31 14:09:27;;;;;;;2.95;1.80;;;16.80;94.40;;;;;;5031959;28;20033;-66